K5-CU

EHJJ · 荷兰

使用的TAF站离机场有133 km的距离
2024年7月19日 07:002024年7月19日 19:00有效
时间
星期五
07:00
星期五
08:00
星期五
09:00
星期五
10:00
星期五
11:00
星期五
12:00
星期五
13:00
星期五
14:00
星期五
15:00
星期五
16:00
星期五
17:00
星期五
18:00
代码
VFR
VFR
VFR
VFR
VFR
VFR
VFR
VFR
VFR
VFR
VFR
VFR
天气
天空晴朗
天空晴朗
天空晴朗
天空晴朗
天空晴朗
天空晴朗
天空晴朗
天空晴朗
天空晴朗
天空晴朗
天空晴朗
天空晴朗
能见度
10 km+
10 km+
10 km+
10 km+
10 km+
10 km+
10 km+
10 km+
10 km+
10 km+
10 km+
10 km+
天花板
-
-
-
-
-
-
-
-
-
-
-
-
100°
100°
100°
100°
100°
100°
100°
100°
100°
100°
100°
100°
100°
100°
100°
100°
100°
100°
100°
100°
100°
100°
100°
100°
速度
6 kt
6 kt
6 kt
6 kt
6 kt
6 kt
6 kt
6 kt
6 kt
6 kt
6 kt
6 kt
阵风
温度/星期日

原版的

TAF EHKD 190428Z 1905/1917 10006KT CAVOK

TAF K5-CU

该字段位于荷兰中。 该机场位于纬度53,81500和经度3,44944。 本场的ICAO机场代码为EHJJ。 机场在Amsterdam FIR中。

该航空气象观测是针对De Kooy Airfield在2024年7月19日 06:28, 当地时间进行的。 从2024年7月19日 07:00到2024年7月19日 19:00, 当地时间有效.

预报

  • 在星期五 07:00和19:00之间

    • 风: 风来自100°方向,速度为6 kt。
    • CAVOK: 天气为CAVOK。这意味着在5.000 ft或MSA(最低安全高度)以下(以较高者为准)以下没有云。这也意味着没有观测到积雨云或高耸的积云,可见度为10 km 或者更多或更高。此外,不会有雾,降雨或其他重要天气。

白天

今天,太阳从05:40升起,在22:04降落。 这适用于K5-CU,世界夏令时可能有所不同。 当地时间与世界标准时间之间的时差为+2 小时。 夏令时目前正在进行中。

报告变更